Time;durP1;ratioP1;P1;durP2;ratioP2;P2;SDS_P1;SDS_P2;PMS_P1;PMS_P2;Temp;Humidity;BMP_temperature;BMP_pressure;BME280_temperature;BME280_humidity;BME280_pressure;Samples;Min_cycle;Max_cycle;Signal;HPM_P1;HPM_P2
2023/09/29 00:02:16;;;;;;;14.40;9.20;;;16.60;99.90;;;;;;5037154;28;20035;-91
2023/09/29 00:04:41;;;;;;;10.00;8.55;;;16.60;99.90;;;;;;5019659;28;20033;-93
2023/09/29 00:07:07;;;;;;;10.55;9.45;;;16.60;99.90;;;;;;5036384;28;20055;-93
2023/09/29 00:09:33;;;;;;;10.43;9.30;;;16.60;99.90;;;;;;5037716;28;20060;-93
2023/09/29 00:11:59;;;;;;;12.65;9.27;;;16.50;99.90;;;;;;5035995;28;20025;-93
2023/09/29 00:14:25;;;;;;;12.88;7.78;;;16.50;99.90;;;;;;5034034;28;20024;-91
2023/09/29 00:16:51;;;;;;;9.23;8.30;;;16.50;99.90;;;;;;5032814;28;20105;-93
2023/09/29 00:19:17;;;;;;;8.90;7.25;;;16.40;99.90;;;;;;5029140;28;20053;-94
2023/09/29 00:21:43;;;;;;;8.77;7.63;;;16.30;99.90;;;;;;5036590;28;20022;-92
2023/09/29 00:24:08;;;;;;;8.43;5.88;;;16.30;99.90;;;;;;5017319;28;20407;-91
2023/09/29 00:26:34;;;;;;;9.00;7.18;;;16.40;99.90;;;;;;5034299;28;20029;-93
2023/09/29 00:29:01;;;;;;;8.50;7.13;;;16.40;99.90;;;;;;5039450;28;20033;-94
2023/09/29 00:31:27;;;;;;;8.25;7.53;;;16.60;99.90;;;;;;5021877;28;20026;-95
2023/09/29 00:33:52;;;;;;;6.90;6.30;;;16.60;99.90;;;;;;5021897;28;20033;-91
2023/09/29 00:36:18;;;;;;;7.57;6.82;;;16.70;99.90;;;;;;5039541;28;20021;-93
2023/09/29 00:38:44;;;;;;;6.22;5.63;;;16.80;99.90;;;;;;5038813;28;20017;-93
2023/09/29 00:41:09;;;;;;;8.18;6.57;;;16.70;99.90;;;;;;5021117;28;20018;-94
2023/09/29 00:43:35;;;;;;;7.72;6.93;;;16.70;99.60;;;;;;5040626;28;20080;-93
2023/09/29 00:46:03;;;;;;;7.75;7.05;;;16.50;99.90;;;;;;5040039;28;20087;-92
2023/09/29 00:48:33;;;;;;;9.20;7.75;;;16.50;99.90;;;;;;5040091;28;20026;-94
2023/09/29 00:50:59;;;;;;;7.35;6.65;;;16.50;99.90;;;;;;5021530;28;20021;-94
2023/09/29 00:53:28;;;;;;;7.90;7.03;;;16.60;99.90;;;;;;5041431;28;20027;-93
2023/09/29 00:55:55;;;;;;;8.15;7.45;;;16.60;99.90;;;;;;5042238;28;20021;-95
2023/09/29 00:58:21;;;;;;;8.10;7.30;;;16.50;99.90;;;;;;5040508;28;20384;-94
2023/09/29 01:00:47;;;;;;;6.72;6.10;;;16.60;99.90;;;;;;5040623;28;20341;-92
2023/09/29 01:03:14;;;;;;;8.27;7.53;;;16.50;99.90;;;;;;5026127;28;20554;-93
2023/09/29 01:05:42;;;;;;;;;;;16.40;99.90;;;;;;5041277;28;20495;-93
2023/09/29 01:08:09;;;;;;;7.80;7.15;;;16.40;99.90;;;;;;5019237;28;20383;-92
2023/09/29 01:10:39;;;;;;;6.38;5.72;;;16.40;99.90;;;;;;5035875;28;20048;-93
2023/09/29 01:13:05;;;;;;;8.20;5.57;;;16.50;99.90;;;;;;5016330;28;20085;-94
2023/09/29 01:15:33;;;;;;;7.45;6.75;;;16.50;99.90;;;;;;5033694;28;20056;-92
2023/09/29 01:17:59;;;;;;;9.75;6.85;;;16.40;99.90;;;;;;5040124;28;20048;-92
2023/09/29 01:20:27;;;;;;;7.40;6.70;;;16.40;99.90;;;;;;5022290;28;20026;-92
2023/09/29 01:22:53;;;;;;;6.50;5.90;;;16.40;99.90;;;;;;5009943;28;20026;-93
2023/09/29 01:25:20;;;;;;;8.65;7.07;;;16.30;99.90;;;;;;5031379;28;20048;-93
2023/09/29 01:27:50;;;;;;;8.20;7.50;;;16.30;99.90;;;;;;5021190;28;20094;-94
2023/09/29 01:30:18;;;;;;;7.40;6.80;;;16.40;99.90;;;;;;5018590;28;20113;-93
2023/09/29 01:32:49;;;;;;;8.23;7.43;;;16.40;99.90;;;;;;5019124;28;20527;-93
2023/09/29 01:35:16;;;;;;;7.32;6.53;;;16.40;99.90;;;;;;5037217;28;20033;-92
2023/09/29 01:37:44;;;;;;;7.63;6.93;;;16.40;99.90;;;;;;5020546;28;20018;-93
2023/09/29 01:40:10;;;;;;;6.75;6.25;;;16.40;99.90;;;;;;5023786;28;20017;-93
2023/09/29 01:42:36;;;;;;;8.88;4.95;;;16.30;99.90;;;;;;5039243;28;20022;-93
2023/09/29 01:45:11;;;;;;;6.97;6.40;;;16.30;99.90;;;;;;5034575;28;20021;-92
2023/09/29 01:47:43;;;;;;;6.35;5.43;;;16.30;99.90;;;;;;5017296;28;20053;-93
2023/09/29 01:50:10;;;;;;;6.43;5.82;;;16.40;99.90;;;;;;5031152;28;20025;-93
2023/09/29 01:52:39;;;;;;;6.25;5.72;;;16.40;99.90;;;;;;5038895;28;20029;-93
2023/09/29 01:55:09;;;;;;;8.52;6.18;;;16.20;99.90;;;;;;5039377;28;20034;-93
2023/09/29 01:57:35;;;;;;;7.18;6.10;;;16.30;99.90;;;;;;5016540;28;20022;-92
2023/09/29 02:00:01;;;;;;;8.60;6.85;;;16.20;99.90;;;;;;5037825;28;20505;-93
2023/09/29 02:02:27;;;;;;;6.90;5.95;;;16.20;99.90;;;;;;5019096;28;20053;-92
2023/09/29 02:04:53;;;;;;;7.50;6.80;;;16.20;99.90;;;;;;5036834;28;20052;-93
2023/09/29 02:07:19;;;;;;;8.10;7.40;;;16.20;99.90;;;;;;5037839;28;20025;-94
2023/09/29 02:09:45;;;;;;;6.25;5.60;;;16.20;99.90;;;;;;5020210;28;20053;-93
2023/09/29 02:12:11;;;;;;;6.57;5.97;;;16.20;99.90;;;;;;5017536;28;20479;-94
2023/09/29 02:14:36;;;;;;;6.95;6.32;;;16.20;99.90;;;;;;5042023;28;20141;-92
2023/09/29 02:17:04;;;;;;;6.90;5.28;;;16.20;99.90;;;;;;5023386;28;20022;-93
2023/09/29 02:19:36;;;;;;;7.65;5.95;;;16.20;99.90;;;;;;5040572;28;20017;-94
2023/09/29 02:22:08;;;;;;;7.65;6.95;;;16.20;99.90;;;;;;5037999;28;20033;-93
2023/09/29 02:24:34;;;;;;;8.00;6.93;;;16.20;99.90;;;;;;5038264;28;20109;-93
2023/09/29 02:27:00;;;;;;;6.63;5.78;;;16.20;99.90;;;;;;5019656;28;20021;-92
2023/09/29 02:29:27;;;;;;;7.80;6.15;;;16.20;99.90;;;;;;5039020;28;20090;-93
2023/09/29 02:31:55;;;;;;;7.53;6.82;;;16.20;99.90;;;;;;5019326;28;20033;-93
2023/09/29 02:34:23;;;;;;;7.40;6.70;;;16.20;99.90;;;;;;5037095;28;20061;-92
2023/09/29 02:36:48;;;;;;;6.70;5.47;;;16.30;99.90;;;;;;5012376;28;20057;-92
2023/09/29 02:39:14;;;;;;;6.22;5.40;;;16.30;99.90;;;;;;5034281;28;20589;-93
2023/09/29 02:41:39;;;;;;;5.55;4.95;;;16.30;99.90;;;;;;5032810;28;20440;-93
2023/09/29 02:44:08;;;;;;;6.53;5.55;;;16.30;99.90;;;;;;5016643;28;20030;-93
2023/09/29 02:46:34;;;;;;;7.57;6.97;;;16.20;99.90;;;;;;5033653;28;20026;-92
2023/09/29 02:48:59;;;;;;;5.88;5.38;;;16.40;99.90;;;;;;5020756;28;20092;-93
2023/09/29 02:51:27;;;;;;;6.93;6.22;;;16.30;99.90;;;;;;5038267;28;20249;-93
2023/09/29 02:53:54;;;;;;;5.97;5.38;;;16.30;99.90;;;;;;5012331;28;20040;-93
2023/09/29 02:56:20;;;;;;;7.43;6.03;;;16.40;99.90;;;;;;5037743;28;20079;-95
2023/09/29 02:58:46;;;;;;;6.95;5.35;;;16.30;99.90;;;;;;5038215;28;20029;-92
2023/09/29 03:01:18;;;;;;;7.18;6.57;;;16.30;99.90;;;;;;5017386;28;20037;-95
2023/09/29 03:03:45;;;;;;;6.70;6.07;;;16.30;99.90;;;;;;5027019;28;20017;-94
2023/09/29 03:06:18;;;;;;;8.88;6.70;;;16.40;99.90;;;;;;5037793;28;20029;-91
2023/09/29 03:08:44;;;;;;;4.80;4.30;;;16.40;99.90;;;;;;5019449;28;20396;-93
2023/09/29 03:11:12;;;;;;;7.43;6.40;;;16.40;99.90;;;;;;5037575;28;20225;-92
2023/09/29 03:13:40;;;;;;;6.65;5.95;;;16.40;99.90;;;;;;5017148;28;20649;-93
2023/09/29 03:16:07;;;;;;;6.85;6.32;;;16.40;99.90;;;;;;5020135;28;20519;-94
2023/09/29 03:18:36;;;;;;;7.85;7.15;;;16.40;99.90;;;;;;5023023;28;20025;-94
2023/09/29 03:21:04;;;;;;;6.72;5.07;;;16.40;99.90;;;;;;5018910;28;20021;-93
2023/09/29 03:23:37;;;;;;;6.30;5.72;;;16.50;99.90;;;;;;5023013;28;20022;-93
2023/09/29 03:26:15;;;;;;;7.78;7.07;;;16.50;99.90;;;;;;5036998;28;20495;-92
2023/09/29 03:28:41;;;;;;;8.85;7.97;;;16.50;99.90;;;;;;5015002;28;20037;-94
2023/09/29 03:31:09;;;;;;;7.47;6.75;;;16.60;99.90;;;;;;5028377;28;20036;-93
2023/09/29 03:33:43;;;;;;;6.25;5.03;;;16.60;99.90;;;;;;5037367;28;20041;-95
2023/09/29 03:36:14;;;;;;;6.60;5.80;;;16.60;99.90;;;;;;5033649;28;20037;-93
2023/09/29 03:38:41;;;;;;;6.57;5.97;;;16.60;99.90;;;;;;5020468;28;20132;-92
2023/09/29 03:41:08;;;;;;;6.93;6.22;;;16.50;99.90;;;;;;5029361;28;20037;-94
2023/09/29 03:43:34;;;;;;;7.07;6.47;;;16.50;99.90;;;;;;5037868;28;20025;-94
2023/09/29 03:46:02;;;;;;;7.13;6.38;;;16.50;99.90;;;;;;5036374;28;20407;-91
2023/09/29 03:48:36;;;;;;;5.28;4.40;;;16.50;99.90;;;;;;5016103;28;20535;-95
2023/09/29 03:51:12;;;;;;;6.97;6.25;;;16.50;99.90;;;;;;5034303;28;20018;-93
2023/09/29 03:53:38;;;;;;;6.68;6.07;;;16.60;99.90;;;;;;5015660;28;20059;-93
2023/09/29 03:56:04;;;;;;;6.53;5.93;;;16.60;99.90;;;;;;5037396;28;20101;-93
2023/09/29 03:58:29;;;;;;;6.45;5.95;;;16.60;99.90;;;;;;5037329;28;20022;-94
2023/09/29 04:00:55;;;;;;;10.48;5.85;;;16.60;99.90;;;;;;5018624;28;20025;-94
2023/09/29 04:03:25;;;;;;;6.22;5.72;;;16.60;99.90;;;;;;5037088;28;20027;-94
2023/09/29 04:05:51;;;;;;;6.50;5.80;;;16.70;99.90;;;;;;5019824;28;20029;-94
2023/09/29 04:08:16;;;;;;;9.05;6.57;;;16.70;99.90;;;;;;5038519;28;20369;-93
2023/09/29 04:10:46;;;;;;;7.57;6.88;;;16.70;99.90;;;;;;5036662;28;20026;-94
2023/09/29 04:13:11;;;;;;;7.40;6.75;;;16.70;99.90;;;;;;5038295;28;20100;-93
2023/09/29 04:15:37;;;;;;;7.30;6.68;;;16.70;99.90;;;;;;5036363;28;20030;-93
2023/09/29 04:18:03;;;;;;;6.43;5.57;;;16.60;99.90;;;;;;5016345;28;20033;-95
2023/09/29 04:20:31;;;;;;;7.43;6.82;;;16.60;99.90;;;;;;5030364;28;20059;-94
2023/09/29 04:22:57;;;;;;;6.88;6.00;;;16.50;99.90;;;;;;5017332;28;20026;-94
2023/09/29 04:25:22;;;;;;;6.90;6.28;;;16.50;99.90;;;;;;5036565;28;20033;-93
2023/09/29 04:27:49;;;;;;;6.70;6.00;;;16.50;99.90;;;;;;5024454;28;20053;-93
2023/09/29 04:30:14;;;;;;;6.32;5.72;;;16.60;99.90;;;;;;5024155;28;20022;-94
2023/09/29 04:32:55;;;;;;;6.45;5.93;;;16.50;99.90;;;;;;5036094;28;20085;-93
2023/09/29 04:35:25;;;;;;;7.07;6.25;;;16.60;99.90;;;;;;5029848;28;20065;-95
2023/09/29 04:38:10;;;;;;;7.03;5.78;;;16.40;99.90;;;;;;5048470;28;20051;-95
2023/09/29 04:40:37;;;;;;;7.30;6.63;;;16.40;99.90;;;;;;5046025;28;20124;-96
2023/09/29 04:43:05;;;;;;;6.82;5.72;;;16.40;99.90;;;;;;5025877;28;20084;-94
2023/09/29 04:45:35;;;;;;;8.05;5.82;;;16.30;99.90;;;;;;5033149;28;20041;-95
2023/09/29 04:48:08;;;;;;;6.95;6.00;;;16.40;99.90;;;;;;5018870;28;20022;-94
2023/09/29 04:50:48;;;;;;;6.78;6.18;;;16.40;99.90;;;;;;5026552;28;20025;-95
2023/09/29 04:53:15;;;;;;;7.55;6.65;;;16.40;99.90;;;;;;5045577;28;20045;-96
2023/09/29 04:55:41;;;;;;;8.25;7.03;;;16.40;99.90;;;;;;5030806;28;20040;-95
2023/09/29 04:58:10;;;;;;;7.35;6.72;;;16.40;99.90;;;;;;5026380;28;20026;-93
2023/09/29 05:00:39;;;;;;;6.63;6.03;;;16.40;99.90;;;;;;5043635;28;20018;-95
2023/09/29 05:03:10;;;;;;;7.10;5.82;;;16.40;99.90;;;;;;5024424;28;20045;-94
2023/09/29 05:05:45;;;;;;;8.57;6.45;;;16.40;99.90;;;;;;5027655;28;20115;-93
2023/09/29 05:08:17;;;;;;;7.93;5.70;;;16.40;99.90;;;;;;5023930;28;20025;-93
2023/09/29 05:10:44;;;;;;;9.70;6.93;;;16.50;99.90;;;;;;5031281;28;20041;-93
2023/09/29 05:13:39;;;;;;;7.80;6.93;;;16.50;99.90;;;;;;5040635;28;20037;-93
2023/09/29 05:16:16;;;;;;;11.70;10.38;;;16.50;99.90;;;;;;5038659;28;20025;-93
2023/09/29 05:18:59;;;;;;;8.88;7.97;;;16.50;99.90;;;;;;5053914;28;20030;-93
2023/09/29 05:21:28;;;;;;;7.72;6.95;;;16.60;99.90;;;;;;5029056;28;20060;-96
2023/09/29 05:23:57;;;;;;;8.52;7.63;;;16.60;99.90;;;;;;5020772;28;20022;-94
2023/09/29 05:26:28;;;;;;;10.18;6.13;;;16.60;99.90;;;;;;5023217;28;20041;-96
2023/09/29 05:28:59;;;;;;;9.15;7.13;;;16.60;99.90;;;;;;5046581;28;20108;-91
2023/09/29 05:31:25;;;;;;;7.90;5.97;;;16.60;99.90;;;;;;5019888;28;20026;-92
2023/09/29 05:33:53;;;;;;;6.95;6.25;;;16.60;99.90;;;;;;5014820;28;20100;-94
2023/09/29 05:36:29;;;;;;;8.70;7.78;;;16.70;99.90;;;;;;5014485;28;20476;-94
2023/09/29 05:38:55;;;;;;;6.68;6.07;;;16.70;99.90;;;;;;5036200;28;20018;-93
2023/09/29 05:41:21;;;;;;;7.03;5.93;;;16.70;99.90;;;;;;5039922;28;20093;-95
2023/09/29 05:43:55;;;;;;;8.57;6.25;;;16.70;99.90;;;;;;5041082;28;20411;-95
2023/09/29 05:46:21;;;;;;;22.10;7.47;;;16.80;99.90;;;;;;5024889;28;20089;-96
2023/09/29 05:48:46;;;;;;;9.55;6.80;;;16.80;99.90;;;;;;5031905;28;20029;-96
2023/09/29 05:51:12;;;;;;;11.38;7.05;;;16.70;99.90;;;;;;5030092;28;20037;-96
2023/09/29 05:53:40;;;;;;;10.98;7.95;;;16.70;99.90;;;;;;5057775;28;20077;-95
2023/09/29 05:56:10;;;;;;;18.23;7.90;;;16.80;99.90;;;;;;5027775;28;20030;-95
2023/09/29 05:58:39;;;;;;;7.07;6.35;;;16.70;99.90;;;;;;5022442;28;20032;-96
2023/09/29 06:01:15;;;;;;;8.43;5.60;;;16.60;99.90;;;;;;5044225;28;20029;-94
2023/09/29 06:03:44;;;;;;;6.25;5.72;;;16.50;99.90;;;;;;5019726;28;20040;-96
2023/09/29 06:06:11;;;;;;;8.05;7.25;;;16.50;99.90;;;;;;5022243;28;20013;-96
2023/09/29 06:08:37;;;;;;;7.65;6.65;;;16.50;99.90;;;;;;5044818;28;20037;-96
2023/09/29 06:11:04;;;;;;;7.32;6.05;;;16.50;99.90;;;;;;5037354;28;20040;-95
2023/09/29 06:13:31;;;;;;;8.32;7.53;;;16.50;99.90;;;;;;5007512;28;20048;-94
2023/09/29 06:15:57;;;;;;;9.55;8.23;;;16.60;99.90;;;;;;5006124;28;20037;-96
2023/09/29 06:18:23;;;;;;;7.38;5.47;;;16.60;99.90;;;;;;5032585;28;20092;-93
2023/09/29 06:20:51;;;;;;;6.65;6.00;;;16.70;99.90;;;;;;5026500;28;20042;-95
2023/09/29 06:23:18;;;;;;;7.72;7.10;;;16.70;99.90;;;;;;5009606;28;20047;-95
2023/09/29 06:25:47;;;;;;;5.78;5.28;;;16.80;99.90;;;;;;5010980;28;20037;-94
2023/09/29 06:28:13;;;;;;;7.35;6.75;;;16.80;99.90;;;;;;5028678;28;20037;-93
2023/09/29 06:30:43;;;;;;;7.88;7.13;;;16.90;99.90;;;;;;5007698;28;20029;-96
2023/09/29 06:33:15;;;;;;;8.52;7.72;;;16.90;99.90;;;;;;5013767;28;20033;-94
2023/09/29 06:35:41;;;;;;;8.05;6.10;;;16.90;99.90;;;;;;5011198;28;20029;-93
2023/09/29 06:38:08;;;;;;;14.80;7.97;;;17.00;99.90;;;;;;5025114;28;20075;-95
2023/09/29 06:40:35;;;;;;;7.63;6.80;;;17.10;99.90;;;;;;5012486;28;20037;-93
2023/09/29 06:43:01;;;;;;;8.18;7.38;;;17.20;99.90;;;;;;5007997;28;20041;-95
2023/09/29 06:45:29;;;;;;;10.30;8.63;;;17.20;99.90;;;;;;5027439;28;20029;-94
2023/09/29 06:47:55;;;;;;;8.82;7.78;;;17.20;99.90;;;;;;5006883;28;20048;-94
2023/09/29 06:50:24;;;;;;;7.13;6.15;;;17.40;99.80;;;;;;5016756;28;20025;-94
2023/09/29 06:52:50;;;;;;;8.05;7.25;;;17.40;99.00;;;;;;5010925;28;20038;-93
2023/09/29 06:55:16;;;;;;;9.25;6.03;;;17.50;97.80;;;;;;5010195;28;20657;-94
2023/09/29 06:57:41;;;;;;;7.40;6.35;;;17.60;96.40;;;;;;5031062;28;20022;-95
2023/09/29 07:00:12;;;;;;;7.80;7.10;;;17.70;95.60;;;;;;5027385;28;20064;-95
2023/09/29 07:02:38;;;;;;;7.32;5.28;;;17.80;95.00;;;;;;5023194;28;20025;-94
2023/09/29 07:05:05;;;;;;;8.13;6.93;;;17.80;95.00;;;;;;5011868;28;20037;-94
2023/09/29 07:07:31;;;;;;;6.50;4.97;;;17.90;94.90;;;;;;5029811;28;20296;-94
2023/09/29 07:09:57;;;;;;;8.70;6.07;;;17.90;95.00;;;;;;5007706;28;20049;-95
2023/09/29 07:12:24;;;;;;;8.52;6.10;;;17.90;94.80;;;;;;5028590;28;20025;-94
2023/09/29 07:14:53;;;;;;;11.55;7.32;;;18.00;95.50;;;;;;5008012;28;20030;-94
2023/09/29 07:17:19;;;;;;;6.60;5.90;;;17.90;97.30;;;;;;5020688;28;20214;-94
2023/09/29 07:19:47;;;;;;;11.88;7.05;;;17.70;94.90;;;;;;5028278;28;20330;-95
2023/09/29 07:22:13;;;;;;;7.63;6.13;;;17.70;96.10;;;;;;5010527;28;20026;-93
2023/09/29 07:24:46;;;;;;;6.55;5.85;;;17.80;96.20;;;;;;5025673;28;20526;-94
2023/09/29 07:27:12;;;;;;;8.32;6.13;;;17.90;96.90;;;;;;5001863;28;20045;-93
2023/09/29 07:29:40;;;;;;;8.30;6.85;;;18.00;96.90;;;;;;5030859;28;20086;-93
2023/09/29 07:32:06;;;;;;;7.10;6.50;;;18.10;94.80;;;;;;5020666;28;20037;-93
2023/09/29 07:34:32;;;;;;;6.28;5.68;;;18.20;94.30;;;;;;5004972;28;20384;-93
2023/09/29 07:36:57;;;;;;;8.18;6.65;;;18.20;93.60;;;;;;5010977;28;20056;-96
2023/09/29 07:39:23;;;;;;;7.95;7.18;;;18.20;93.70;;;;;;5005176;28;20034;-92
2023/09/29 07:41:50;;;;;;;7.47;6.88;;;18.20;93.20;;;;;;5001119;28;20030;-93
2023/09/29 07:44:16;;;;;;;6.57;5.97;;;18.10;92.20;;;;;;5001277;28;20030;-94
2023/09/29 07:46:42;;;;;;;7.22;6.55;;;18.10;92.70;;;;;;5000964;28;20129;-93
2023/09/29 07:49:08;;;;;;;5.90;5.30;;;18.00;93.30;;;;;;5002987;28;20772;-96
2023/09/29 07:51:33;;;;;;;8.55;6.85;;;18.10;94.00;;;;;;5006567;28;20048;-92
2023/09/29 07:54:01;;;;;;;8.98;6.78;;;18.10;92.90;;;;;;5003764;28;20369;-93
2023/09/29 07:56:27;;;;;;;8.32;7.40;;;18.20;92.20;;;;;;5001987;28;20036;-94
2023/09/29 07:58:54;;;;;;;8.30;7.43;;;18.30;92.60;;;;;;5018218;28;20026;-94
2023/09/29 08:01:19;;;;;;;7.03;6.38;;;18.30;93.80;;;;;;5002556;28;20079;-95
2023/09/29 08:03:46;;;;;;;6.50;4.70;;;18.40;92.10;;;;;;5020754;28;20490;-93
2023/09/29 08:06:13;;;;;;;9.27;8.65;;;18.50;91.30;;;;;;5014825;28;20108;-94
2023/09/29 08:08:39;;;;;;;;;;;18.70;90.60;;;;;;5020854;28;20026;-93
2023/09/29 08:11:05;;;;;;;6.30;5.60;;;18.80;89.80;;;;;;5022679;28;20263;-94
2023/09/29 08:13:34;;;;;;;8.40;7.70;;;18.90;87.60;;;;;;5028438;28;20061;-95
2023/09/29 08:16:03;;;;;;;7.32;6.63;;;19.00;87.20;;;;;;5006824;28;20022;-95
2023/09/29 08:18:29;;;;;;;7.75;7.03;;;19.10;86.50;;;;;;5010993;28;20022;-94
2023/09/29 08:21:00;;;;;;;7.97;7.28;;;19.20;87.40;;;;;;5012872;28;20021;-92
2023/09/29 08:23:30;;;;;;;6.95;6.25;;;19.20;86.70;;;;;;5029974;28;20507;-92
2023/09/29 08:26:05;;;;;;;7.07;6.07;;;19.20;86.30;;;;;;5022466;28;20033;-93
2023/09/29 08:32:01;;;;;;;7.70;6.90;;;19.50;86.50;;;;;;5028016;28;20091;-94
2023/09/29 08:34:31;;;;;;;7.38;6.63;;;19.60;86.00;;;;;;5052570;28;20092;-91
2023/09/29 08:37:07;;;;;;;7.90;7.30;;;19.80;82.80;;;;;;5049197;28;20021;-92
2023/09/29 08:39:35;;;;;;;6.55;5.95;;;19.90;84.90;;;;;;5051227;28;20021;-92
2023/09/29 08:42:05;;;;;;;7.75;7.03;;;20.00;82.10;;;;;;5051119;28;20032;-92
2023/09/29 08:44:36;;;;;;;6.15;5.55;;;20.20;82.80;;;;;;5067990;28;20127;-93
2023/09/29 08:47:11;;;;;;;6.35;5.75;;;20.30;80.90;;;;;;5060242;28;20080;-92
2023/09/29 08:49:43;;;;;;;5.60;5.10;;;20.50;79.80;;;;;;5061266;28;20108;-92
2023/09/29 08:52:14;;;;;;;7.82;6.78;;;20.70;78.60;;;;;;5039980;28;20056;-92
2023/09/29 08:54:50;;;;;;;7.50;6.65;;;20.80;77.90;;;;;;5071878;28;20052;-93
2023/09/29 08:57:31;;;;;;;7.10;6.03;;;21.00;78.80;;;;;;5054638;28;20108;-92
2023/09/29 09:00:06;;;;;;;7.20;6.13;;;21.10;78.00;;;;;;5041843;28;20029;-93
2023/09/29 09:02:32;;;;;;;6.53;5.60;;;21.20;78.80;;;;;;5044279;28;20085;-93
2023/09/29 09:05:15;;;;;;;6.10;5.40;;;21.40;77.70;;;;;;5049447;28;20052;-93
2023/09/29 09:07:47;;;;;;;5.57;5.07;;;21.50;77.30;;;;;;5034274;28;20160;-92
2023/09/29 09:10:15;;;;;;;7.35;5.93;;;21.70;76.10;;;;;;5034618;28;20009;-92
2023/09/29 09:12:47;;;;;;;5.85;5.35;;;21.80;74.40;;;;;;5069303;28;20017;-92
2023/09/29 09:18:39;;;;;;;5.40;4.95;;;22.20;72.50;;;;;;5061395;28;20024;-92
2023/09/29 09:21:07;;;;;;;7.93;5.50;;;22.40;70.70;;;;;;5053736;28;20071;-92
2023/09/29 09:23:53;;;;;;;5.70;5.20;;;22.80;71.00;;;;;;5051875;28;20518;-92
2023/09/29 09:26:22;;;;;;;6.60;5.00;;;23.00;69.50;;;;;;5036641;28;20053;-92
2023/09/29 09:28:54;;;;;;;5.95;5.47;;;23.20;68.60;;;;;;5068245;28;20006;-92
2023/09/29 09:31:20;;;;;;;6.30;5.68;;;23.20;68.90;;;;;;5060311;28;20044;-91
2023/09/29 09:33:54;;;;;;;6.30;5.70;;;23.30;67.00;;;;;;5073134;28;20021;-92
2023/09/29 09:36:25;;;;;;;7.63;5.88;;;23.50;68.00;;;;;;5042122;28;20108;-93
2023/09/29 09:39:03;;;;;;;7.20;4.90;;;23.70;66.00;;;;;;5055654;28;20047;-92
2023/09/29 09:41:32;;;;;;;5.47;5.00;;;23.90;65.10;;;;;;5072034;28;20021;-92
2023/09/29 09:44:05;;;;;;;5.32;4.55;;;24.00;65.10;;;;;;5056599;28;20033;-92
2023/09/29 09:46:38;;;;;;;5.75;4.78;;;24.30;64.20;;;;;;5041185;28;20036;-92
2023/09/29 09:49:09;;;;;;;5.13;4.65;;;24.50;63.40;;;;;;5073034;28;20535;-93
2023/09/29 09:51:44;;;;;;;7.72;3.35;;;24.60;62.90;;;;;;5072119;28;20083;-91
2023/09/29 09:54:12;;;;;;;5.30;4.47;;;24.70;61.80;;;;;;5070164;28;20051;-93
2023/09/29 09:57:18;;;;;;;5.25;4.53;;;24.80;61.40;;;;;;5069198;28;20021;-91
2023/09/29 09:59:45;;;;;;;5.30;4.80;;;24.90;61.90;;;;;;5056406;28;20006;-91
2023/09/29 10:02:22;;;;;;;5.40;4.85;;;25.10;61.10;;;;;;5051945;28;20084;-92
2023/09/29 10:04:52;;;;;;;4.32;3.15;;;25.20;61.30;;;;;;5041685;28;20427;-92
2023/09/29 10:07:20;;;;;;;6.72;4.93;;;25.20;59.60;;;;;;5056829;28;20049;-91
2023/09/29 10:09:52;;;;;;;5.30;4.10;;;25.40;59.90;;;;;;5053060;28;20064;-92
2023/09/29 10:12:26;;;;;;;5.55;4.20;;;25.50;59.20;;;;;;5037670;28;20029;-92
2023/09/29 10:15:02;;;;;;;5.57;4.82;;;25.30;58.70;;;;;;5065220;28;20017;-92
2023/09/29 10:17:46;;;;;;;5.38;3.90;;;25.10;59.60;;;;;;5056383;28;20021;-92
2023/09/29 10:20:28;;;;;;;4.75;4.18;;;25.30;58.80;;;;;;5057599;28;20067;-93
2023/09/29 10:23:06;;;;;;;4.45;3.53;;;25.60;58.10;;;;;;5046066;28;20040;-92
2023/09/29 10:25:35;;;;;;;6.43;4.68;;;25.60;58.80;;;;;;5048146;28;20022;-93
2023/09/29 10:28:06;;;;;;;7.25;4.95;;;25.70;58.40;;;;;;5061776;28;20017;-93
2023/09/29 10:30:47;;;;;;;5.30;4.80;;;26.00;58.40;;;;;;5039771;28;20033;-92
2023/09/29 10:33:22;;;;;;;6.68;4.38;;;26.20;58.00;;;;;;5054849;28;20006;-92
2023/09/29 10:35:48;;;;;;;5.43;4.95;;;26.50;56.00;;;;;;5053845;28;20096;-92
2023/09/29 10:38:30;;;;;;;4.05;3.70;;;26.40;56.50;;;;;;5059301;28;20085;-92
2023/09/29 10:41:08;;;;;;;6.28;5.68;;;26.20;56.00;;;;;;5053849;28;20021;-91
2023/09/29 10:43:36;;;;;;;5.70;5.20;;;26.50;56.10;;;;;;5054867;28;20088;-92
2023/09/29 10:46:15;;;;;;;7.15;4.22;;;26.70;54.60;;;;;;5051680;28;20021;-92
2023/09/29 10:48:57;;;;;;;5.03;4.45;;;26.70;54.20;;;;;;5056166;28;20040;-93
2023/09/29 10:51:24;;;;;;;6.20;3.47;;;26.60;55.30;;;;;;5039243;28;20009;-92
2023/09/29 11:04:04;;;;;;;6.70;3.90;;;26.50;55.80;;;;;;5022530;28;20060;-92
2023/09/29 11:12:56;;;;;;;5.07;4.57;;;27.20;54.30;;;;;;5044794;28;20032;-93
2023/09/29 11:16:29;;;;;;;5.55;4.95;;;27.40;53.80;;;;;;5048391;28;20170;-93
2023/09/29 11:29:09;;;;;;;4.70;3.85;;;27.50;52.00;;;;;;5031587;23;20763;-91
2023/09/29 11:31:55;;;;;;;6.95;4.40;;;27.90;51.30;;;;;;5005233;28;20026;-91
2023/09/29 11:34:21;;;;;;;5.28;3.80;;;27.90;52.30;;;;;;5011082;28;20037;-90
2023/09/29 11:36:53;;;;;;;5.72;4.43;;;28.30;50.20;;;;;;5000687;28;20061;-90
2023/09/29 11:43:02;;;;;;;7.57;4.60;;;28.30;49.90;;;;;;4980552;28;20116;-90
2023/09/29 11:45:38;;;;;;;5.00;4.30;;;28.10;50.20;;;;;;4970642;28;20704;-90
2023/09/29 11:48:28;;;;;;;6.25;4.05;;;28.30;51.00;;;;;;4959264;28;20049;-90
2023/09/29 11:54:37;;;;;;;6.32;3.67;;;29.00;50.30;;;;;;5000983;28;20072;-91
2023/09/29 11:57:31;;;;;;;6.47;3.78;;;28.60;48.30;;;;;;5011475;28;21483;-90
2023/09/29 12:03:23;;;;;;;5.05;4.55;;;29.00;48.30;;;;;;5025092;28;20033;-93
2023/09/29 12:09:32;;;;;;;5.82;4.53;;;28.50;49.90;;;;;;5022302;28;20029;-90
2023/09/29 12:15:38;;;;;;;5.05;4.57;;;27.30;53.10;;;;;;5024126;23;20441;-94
2023/09/29 12:18:04;;;;;;;4.60;4.13;;;27.20;54.60;;;;;;4978482;28;20020;-95
2023/09/29 12:20:30;;;;;;;4.55;4.15;;;27.00;54.80;;;;;;4984558;28;20112;-95
2023/09/29 12:23:01;;;;;;;6.60;5.15;;;26.70;55.40;;;;;;4976703;28;20026;-94
2023/09/29 12:25:27;;;;;;;5.72;4.85;;;26.60;57.10;;;;;;4972647;28;20078;-93
2023/09/29 12:27:55;;;;;;;6.55;4.10;;;26.50;59.00;;;;;;4977978;28;20035;-94
2023/09/29 12:30:22;;;;;;;10.45;4.38;;;26.50;59.10;;;;;;4975346;28;20035;-93
2023/09/29 12:32:49;;;;;;;4.60;3.55;;;26.40;59.60;;;;;;4978834;28;20031;-94
2023/09/29 12:35:15;;;;;;;;;;;26.50;58.60;;;;;;4953789;28;20227;-93
2023/09/29 12:37:44;;;;;;;4.50;4.07;;;26.40;59.00;;;;;;4980309;28;19901;-95
2023/09/29 12:40:11;;;;;;;4.40;3.03;;;26.50;59.20;;;;;;4980265;28;20083;-94
2023/09/29 12:42:40;;;;;;;4.78;3.22;;;26.70;59.10;;;;;;4982455;28;20039;-94
2023/09/29 12:45:10;;;;;;;5.35;4.20;;;26.50;59.30;;;;;;4970901;28;20042;-93
2023/09/29 12:47:36;;;;;;;6.63;3.58;;;26.50;59.30;;;;;;4971303;28;20043;-94
2023/09/29 12:50:03;;;;;;;4.10;3.42;;;26.50;60.00;;;;;;4974883;28;20031;-92
2023/09/29 12:52:29;;;;;;;4.75;4.18;;;26.50;59.80;;;;;;4977949;28;20027;-93
2023/09/29 12:54:57;;;;;;;3.65;3.35;;;26.60;58.90;;;;;;4966184;28;20128;-94
2023/09/29 12:57:23;;;;;;;5.32;3.08;;;27.30;57.20;;;;;;4969640;28;20374;-93
2023/09/29 12:59:56;;;;;;;8.45;3.15;;;27.80;55.50;;;;;;4975269;28;20027;-94
2023/09/29 13:02:24;;;;;;;;;;;28.20;53.70;;;;;;4980382;28;20042;-92
2023/09/29 13:04:51;;;;;;;6.78;3.58;;;28.20;54.00;;;;;;4978436;28;19910;-96
2023/09/29 13:07:17;;;;;;;3.90;2.53;;;27.90;54.30;;;;;;4979020;28;20050;-94
2023/09/29 13:09:43;;;;;;;3.80;3.45;;;27.40;56.10;;;;;;4976448;28;20054;-94
2023/09/29 13:12:16;;;;;;;4.32;3.03;;;27.20;57.70;;;;;;4979614;28;20034;-93
2023/09/29 13:14:54;;;;;;;6.20;3.35;;;27.00;57.90;;;;;;4980522;28;20042;-93
2023/09/29 13:17:25;;;;;;;5.70;4.05;;;26.40;59.50;;;;;;4987616;28;20023;-94
2023/09/29 13:20:38;;;;;;;5.28;3.20;;;26.70;57.20;;;;;;4966207;28;20054;-92
2023/09/29 13:23:09;;;;;;;9.27;3.33;;;26.80;57.40;;;;;;4979848;28;20054;-93
2023/09/29 13:29:21;;;;;;;6.07;3.92;;;27.30;57.30;;;;;;4971797;28;20397;-94
2023/09/29 13:32:11;;;;;;;5.55;3.83;;;27.60;55.00;;;;;;4981486;28;20047;-93
2023/09/29 13:34:46;;;;;;;6.47;3.67;;;28.10;54.10;;;;;;4976027;28;20039;-94
2023/09/29 13:37:34;;;;;;;5.75;4.88;;;27.20;55.30;;;;;;4986418;28;20027;-92
2023/09/29 13:40:14;;;;;;;5.07;3.10;;;27.80;54.20;;;;;;4977744;28;20127;-93
2023/09/29 13:47:10;;;;;;;;;;;;;;;;;;;;;
2023/09/29 13:49:45;;;;;;;7.72;4.88;;;27.70;54.50;;;;;;4982466;28;20054;-93
2023/09/29 13:52:20;;;;;;;10.60;3.58;;;26.90;55.20;;;;;;5004279;28;20038;-93
2023/09/29 13:57:59;;;;;;;13.38;5.35;;;25.60;57.20;;;;;;4996675;28;20034;-95
2023/09/29 14:00:34;;;;;;;11.70;5.18;;;25.30;58.30;;;;;;4995935;28;20047;-94
2023/09/29 14:03:03;;;;;;;11.68;5.35;;;25.40;59.30;;;;;;4966814;28;20098;-95
2023/09/29 14:05:44;;;;;;;10.43;4.68;;;25.50;59.00;;;;;;4978439;28;20035;-94